CYPR/YPR METAR and TAF weather

Enter ICAO airport designator
Station Type Date Time Source
CYPR METAR 2022/01/29 10:00 UTC NOAA

CYPR 291000Z AUTO 14018G26KT 9SM -RA OVC040 07/03 A2983 RMK SLP103


Station Type Date Time Source
CYPR Decoded METAR 2022/01/29 10:00 UTC NOAA

Prince Rupert, B. C., Canada (CYPR) 54-18N 130-26W 34M
Jan 29, 2022 - 05:00 AM EST / 2022.01.29 1000 UTC
Wind: from the SE (140 degrees) at 21 MPH (18 KT) gusting to 30 MPH (26 KT):0
Visibility: 9 mile(s):0
Sky conditions: overcast
Weather: light rain
Temperature: 44 F (7 C)
Dew Point: 37 F (3 C)
Relative Humidity: 75%
Pressure (altimeter): 29.83 in. Hg (1010 hPa)
ob: CYPR 291000Z AUTO 14018G26KT 9SM -RA OVC040 07/03 A2983 RMK SLP103
cycle: 10

Station Type Date Time Source
CYPR TAF 2022/01/29 07:42 UTC NOAA

TAF CYPR 290640Z 2907/2919 15015G25KT P6SM SCT025 OVC040
TEMPO 2907/2910 P6SM -RA OVC025
FM291000 14018G28KT P6SM -RA SCT020 OVC030
TEMPO 2910/2919 4SM -RA BR BKN020 OVC030
RMK FCST BASED ON AUTO OBS. NXT FCST BY 291300Z

Example: see airport list